Terminal Aerodrome Forecast
Issued by NWS Boston, MA

Home | Current Version | Previous Version | Text Only | Print | Product List | Glossary On
Versions: 1 2 3 4 5 6 7 8 9 10 11 12 13 14 15 16 17 18 19 20 21 22
000
FTUS41 KBOX 132338
TAFORH
TAF
KORH 132338Z 1400/1424 27015G35KT P6SM FEW250
     FM140400 26012G27KT P6SM BKN100
     FM140700 25010G18KT P6SM VCSH OVC060
     FM140900 25007KT 3SM -SN OVC040
     FM141300 28005KT P6SM VCSH BKN060
     FM141500 30010KT P6SM BKN060=

USA.gov is the U.S. government's official web portal to all federal, state and local government web resources and services.